Time;durP1;ratioP1;P1;durP2;ratioP2;P2;SDS_P1;SDS_P2;PMS_P1;PMS_P2;Temp;Humidity;BMP_temperature;BMP_pressure;BME280_temperature;BME280_humidity;BME280_pressure;Samples;Min_cycle;Max_cycle;Signal;HPM_P1;HPM_P2
2023/01/28 00:01:32;;;;;;;2.55;2.38;;;0.60;99.90;;;;;;5127199;27;20231;-68
2023/01/28 00:03:58;;;;;;;2.08;1.95;;;0.60;99.90;;;;;;5127922;27;20372;-68
2023/01/28 00:06:25;;;;;;;2.60;1.05;;;0.60;99.90;;;;;;5128087;27;20221;-68
2023/01/28 00:08:53;;;;;;;2.05;0.93;;;0.60;99.90;;;;;;5127348;27;20204;-68
2023/01/28 00:11:21;;;;;;;3.33;1.02;;;0.70;99.90;;;;;;5126959;27;20711;-68
2023/01/28 00:13:51;;;;;;;6.43;1.65;;;0.70;99.90;;;;;;5127148;27;20604;-68
2023/01/28 00:16:21;;;;;;;0.30;0.30;;;0.60;99.90;;;;;;5128190;27;20265;-67
2023/01/28 00:18:48;;;;;;;0.93;0.93;;;0.60;99.90;;;;;;5127303;27;20568;-68
2023/01/28 00:21:15;;;;;;;0.63;0.63;;;0.60;99.90;;;;;;5127377;27;20208;-69
2023/01/28 00:23:47;;;;;;;1.30;0.70;;;0.60;99.90;;;;;;5127901;27;20678;-68
2023/01/28 00:26:15;;;;;;;1.50;1.40;;;0.70;99.90;;;;;;5126932;27;20229;-68
2023/01/28 00:28:42;;;;;;;0.55;0.55;;;0.80;99.90;;;;;;5126885;27;20189;-68
2023/01/28 00:31:10;;;;;;;0.93;0.50;;;0.80;99.90;;;;;;5126774;28;20215;-68
2023/01/28 00:33:38;;;;;;;0.75;0.75;;;0.70;99.90;;;;;;5127036;28;20207;-68
2023/01/28 00:36:06;;;;;;;1.25;1.25;;;0.70;99.90;;;;;;5128034;28;20232;-68
2023/01/28 00:38:33;;;;;;;0.30;0.30;;;0.60;99.90;;;;;;5129945;27;20702;-68
2023/01/28 00:41:08;;;;;;;0.47;0.47;;;0.70;99.90;;;;;;5111716;28;20290;-68
2023/01/28 00:43:35;;;;;;;0.85;0.85;;;0.60;99.90;;;;;;5121789;27;20234;-67
2023/01/28 00:46:02;;;;;;;0.63;0.63;;;0.70;99.90;;;;;;5131953;27;20233;-68
2023/01/28 00:48:29;;;;;;;5.78;1.95;;;0.60;99.90;;;;;;5115450;27;20196;-68
2023/01/28 00:50:57;;;;;;;0.85;0.85;;;0.60;99.90;;;;;;5131718;27;20219;-67
2023/01/28 00:53:23;;;;;;;1.67;1.58;;;0.60;99.90;;;;;;5131922;27;20197;-67
2023/01/28 00:55:50;;;;;;;0.77;0.77;;;0.50;99.90;;;;;;5132236;27;20225;-68
2023/01/28 00:58:17;;;;;;;0.77;0.77;;;0.60;99.90;;;;;;5131816;27;20205;-68
2023/01/28 01:00:44;;;;;;;1.42;1.33;;;0.70;99.90;;;;;;5131931;27;20227;-68
2023/01/28 01:03:11;;;;;;;1.10;0.93;;;0.70;99.90;;;;;;5131687;27;20279;-68
2023/01/28 01:05:39;;;;;;;1.33;0.73;;;0.70;99.90;;;;;;5131775;27;20240;-67
2023/01/28 01:08:10;;;;;;;1.25;1.25;;;0.70;99.90;;;;;;5130773;27;20618;-69
2023/01/28 01:10:40;;;;;;;1.08;1.08;;;0.60;99.90;;;;;;5131751;27;20224;-68
2023/01/28 01:13:07;;;;;;;4.28;1.95;;;0.60;99.90;;;;;;5131556;27;20404;-68
2023/01/28 01:15:34;;;;;;;1.45;1.23;;;0.50;99.90;;;;;;5131813;27;20568;-69
2023/01/28 01:18:01;;;;;;;0.80;0.55;;;0.60;99.90;;;;;;5130291;27;20208;-69
2023/01/28 01:20:32;;;;;;;2.15;1.10;;;0.50;99.90;;;;;;5131449;27;20249;-69
2023/01/28 01:22:59;;;;;;;1.10;1.00;;;0.50;99.90;;;;;;5131808;27;20594;-68
2023/01/28 01:25:27;;;;;;;0.80;0.80;;;1.30;99.90;;;;;;5131613;27;20266;-66
2023/01/28 01:27:54;;;;;;;0.82;0.70;;;0.60;99.90;;;;;;5131831;27;20217;-68
2023/01/28 01:30:21;;;;;;;1.38;1.27;;;0.60;99.90;;;;;;5131080;27;20207;-68
2023/01/28 01:32:48;;;;;;;0.82;0.82;;;0.60;99.90;;;;;;5130505;27;20280;-69
2023/01/28 01:35:15;;;;;;;2.40;2.30;;;1.30;99.90;;;;;;5131193;27;20301;-68
2023/01/28 01:37:44;;;;;;;0.70;0.70;;;0.60;99.90;;;;;;5130249;27;20204;-69
2023/01/28 01:40:12;;;;;;;1.52;1.42;;;0.60;99.90;;;;;;5129666;27;20190;-67
2023/01/28 01:42:40;;;;;;;2.78;0.77;;;0.60;99.90;;;;;;5131851;27;20207;-68
2023/01/28 01:45:12;;;;;;;0.60;0.60;;;0.50;99.90;;;;;;5130740;27;20716;-68
2023/01/28 01:47:44;;;;;;;2.22;0.93;;;0.60;99.90;;;;;;5130676;27;20193;-68
2023/01/28 01:50:20;;;;;;;1.13;1.13;;;0.40;99.90;;;;;;5129265;27;20930;-70
2023/01/28 01:52:50;;;;;;;0.82;0.82;;;0.50;99.90;;;;;;5131144;27;20197;-69
2023/01/28 01:55:21;;;;;;;0.40;0.40;;;0.60;99.90;;;;;;5130649;27;20194;-69
2023/01/28 01:57:51;;;;;;;0.40;0.40;;;0.70;99.90;;;;;;5130774;27;20292;-69
2023/01/28 02:00:19;;;;;;;1.40;1.30;;;0.60;99.90;;;;;;5130281;27;20554;-68
2023/01/28 02:02:48;;;;;;;0.60;0.40;;;0.70;99.90;;;;;;5130211;27;20193;-67
2023/01/28 02:05:18;;;;;;;1.15;1.05;;;0.60;99.90;;;;;;5128337;27;20311;-68
2023/01/28 02:07:46;;;;;;;2.15;1.85;;;0.60;99.90;;;;;;5130539;27;20270;-67
2023/01/28 02:10:14;;;;;;;3.58;1.17;;;0.50;99.90;;;;;;5130152;27;20679;-69
2023/01/28 02:12:45;;;;;;;0.70;0.60;;;0.50;99.90;;;;;;5130262;27;20280;-67
2023/01/28 02:15:17;;;;;;;0.50;0.50;;;0.60;99.90;;;;;;5130677;27;20205;-69
2023/01/28 02:17:44;;;;;;;1.10;1.10;;;0.60;99.90;;;;;;5130486;27;20278;-68
2023/01/28 02:20:14;;;;;;;1.15;1.15;;;0.60;99.90;;;;;;5129255;27;20193;-68
2023/01/28 02:23:13;;;;;;;0.70;0.70;;;0.70;99.90;;;;;;5130378;27;20197;-68
2023/01/28 02:26:08;;;;;;;0.50;0.50;;;0.70;99.90;;;;;;5130435;27;20315;-68
2023/01/28 02:28:45;;;;;;;1.58;1.48;;;0.70;99.90;;;;;;5100003;27;20304;-68
2023/01/28 02:31:17;;;;;;;0.70;0.70;;;0.70;99.90;;;;;;5130686;27;20224;-68
2023/01/28 02:33:51;;;;;;;0.60;0.60;;;0.70;99.90;;;;;;5129986;27;20189;-69
2023/01/28 02:36:27;;;;;;;1.15;1.15;;;0.70;99.90;;;;;;5130347;27;20220;-68
2023/01/28 02:38:58;;;;;;;0.75;0.73;;;0.80;99.90;;;;;;5115695;27;20192;-68
2023/01/28 02:41:31;;;;;;;1.80;0.70;;;0.90;99.90;;;;;;5130025;27;20274;-67
2023/01/28 02:44:02;;;;;;;0.30;0.30;;;0.80;99.90;;;;;;5130155;27;21112;-68
2023/01/28 02:49:27;;;;;;;1.52;1.42;;;0.80;99.90;;;;;;5129551;27;20208;-68
2023/01/28 02:52:18;;;;;;;0.93;0.77;;;0.80;99.90;;;;;;5129780;27;20221;-70
2023/01/28 02:54:56;;;;;;;1.75;1.65;;;0.80;99.90;;;;;;5129804;27;20193;-68
2023/01/28 02:57:37;;;;;;;0.60;0.60;;;0.70;99.90;;;;;;5129988;27;20220;-68
2023/01/28 03:00:12;;;;;;;1.40;1.00;;;0.70;99.90;;;;;;5125797;27;20191;-68
2023/01/28 03:02:48;;;;;;;0.40;0.40;;;0.70;99.90;;;;;;5129563;27;20232;-68
2023/01/28 03:05:21;;;;;;;1.23;1.13;;;0.70;99.90;;;;;;5129715;27;20225;-68
2023/01/28 03:07:49;;;;;;;5.18;1.05;;;0.70;99.90;;;;;;5129546;27;20544;-68
2023/01/28 03:10:20;;;;;;;1.30;1.20;;;0.70;99.90;;;;;;5128909;27;20265;-67
2023/01/28 03:38:19;;;;;;;0.80;0.80;;;0.60;99.90;;;;;;5122189;27;20566;-68
2023/01/28 03:40:50;;;;;;;0.70;0.70;;;0.60;99.90;;;;;;5127962;27;20278;-70
2023/01/28 03:43:17;;;;;;;0.80;0.80;;;0.60;99.90;;;;;;5128072;27;20545;-67
2023/01/28 03:45:45;;;;;;;1.23;0.98;;;0.70;99.90;;;;;;5128698;27;20233;-68
2023/01/28 03:48:14;;;;;;;0.75;0.75;;;0.70;99.90;;;;;;5128446;27;20280;-68
2023/01/28 03:50:41;;;;;;;0.93;0.63;;;0.80;99.90;;;;;;5128465;27;20217;-67
2023/01/28 03:53:16;;;;;;;1.95;1.02;;;0.90;99.90;;;;;;5128846;27;20637;-67
2023/01/28 03:55:44;;;;;;;0.73;0.65;;;0.80;99.90;;;;;;5128144;27;20224;-68
2023/01/28 03:58:12;;;;;;;0.65;0.65;;;0.90;99.90;;;;;;5128761;27;20233;-68
2023/01/28 04:00:41;;;;;;;1.63;0.98;;;0.80;99.90;;;;;;5128167;27;20212;-68
2023/01/28 04:03:15;;;;;;;2.53;2.20;;;0.60;99.90;;;;;;5127752;27;20748;-66
2023/01/28 04:05:44;;;;;;;2.25;2.10;;;0.70;99.90;;;;;;5128064;27;20592;-68
2023/01/28 04:08:13;;;;;;;1.15;1.05;;;0.70;99.90;;;;;;5128121;27;20687;-68
2023/01/28 04:10:42;;;;;;;2.35;0.65;;;0.90;99.90;;;;;;5128483;27;20313;-68
2023/01/28 04:13:11;;;;;;;1.23;0.85;;;0.90;99.90;;;;;;5127063;27;20209;-68
2023/01/28 04:15:38;;;;;;;1.55;0.82;;;0.70;99.90;;;;;;5128536;27;20224;-69
2023/01/28 04:18:06;;;;;;;3.63;0.85;;;0.70;99.90;;;;;;5128497;27;20948;-68
2023/01/28 04:20:33;;;;;;;0.93;0.65;;;0.60;99.90;;;;;;5128271;27;20213;-68
2023/01/28 04:23:04;;;;;;;8.38;2.00;;;0.60;99.90;;;;;;5127765;27;20300;-68
2023/01/28 04:25:31;;;;;;;1.25;1.20;;;0.60;99.90;;;;;;5127878;27;20229;-68
2023/01/28 04:27:58;;;;;;;1.80;1.38;;;0.60;99.90;;;;;;5127443;27;20715;-68
2023/01/28 04:30:25;;;;;;;1.63;1.52;;;0.60;99.90;;;;;;5109876;28;20584;-68
2023/01/28 04:32:52;;;;;;;3.53;1.45;;;0.70;99.90;;;;;;5127616;27;20200;-68
2023/01/28 04:35:20;;;;;;;1.23;0.85;;;0.80;99.90;;;;;;5128350;27;20686;-68
2023/01/28 04:37:47;;;;;;;2.97;1.30;;;0.80;99.90;;;;;;5127404;28;20205;-69
2023/01/28 04:40:16;;;;;;;2.67;0.90;;;0.80;99.90;;;;;;5114060;28;20190;-68
2023/01/28 04:42:52;;;;;;;0.65;0.65;;;0.70;99.90;;;;;;5126611;28;20189;-68
2023/01/28 04:45:20;;;;;;;0.50;0.50;;;0.80;99.90;;;;;;5128026;28;20353;-68
2023/01/28 04:47:47;;;;;;;1.77;1.67;;;0.80;99.90;;;;;;5114687;28;20193;-69
2023/01/28 04:50:16;;;;;;;1.70;1.55;;;0.90;99.90;;;;;;5124447;28;20248;-66
2023/01/28 04:52:43;;;;;;;0.88;0.88;;;0.80;99.90;;;;;;5127999;28;20197;-68
2023/01/28 04:55:10;;;;;;;0.90;0.90;;;0.80;99.90;;;;;;5122666;28;20656;-68
2023/01/28 04:57:39;;;;;;;1.48;1.30;;;1.40;99.90;;;;;;5119110;28;20659;-68
2023/01/28 05:00:07;;;;;;;2.38;2.17;;;0.90;99.90;;;;;;5114246;28;20201;-68
2023/01/28 05:02:33;;;;;;;0.40;0.40;;;0.80;99.90;;;;;;5122320;28;20186;-68
2023/01/28 05:05:03;;;;;;;1.20;1.10;;;0.80;99.90;;;;;;5127998;28;20201;-68
2023/01/28 05:07:31;;;;;;;3.00;2.78;;;0.70;99.90;;;;;;5121592;28;20226;-68
2023/01/28 05:09:58;;;;;;;1.77;1.42;;;0.80;99.90;;;;;;5107162;28;20193;-68
2023/01/28 05:12:25;;;;;;;3.45;1.70;;;0.90;99.90;;;;;;5107331;28;20310;-67
2023/01/28 05:14:53;;;;;;;1.17;1.13;;;0.90;99.90;;;;;;5107628;28;21767;-69
2023/01/28 05:17:20;;;;;;;3.28;1.75;;;0.90;99.90;;;;;;5114918;28;20221;-68
2023/01/28 05:19:47;;;;;;;2.20;1.67;;;0.90;99.90;;;;;;5127493;28;20204;-68
2023/01/28 05:22:14;;;;;;;0.93;0.93;;;1.00;99.90;;;;;;5127517;28;20225;-68
2023/01/28 05:24:45;;;;;;;0.50;0.50;;;0.90;99.90;;;;;;5129864;27;20201;-67
2023/01/28 05:27:12;;;;;;;2.75;1.10;;;0.90;99.90;;;;;;5112529;27;20226;-67
2023/01/28 05:29:39;;;;;;;0.40;0.40;;;0.90;99.90;;;;;;5110680;28;20206;-68
2023/01/28 05:32:07;;;;;;;0.95;0.95;;;0.90;99.90;;;;;;5111093;27;20213;-67
2023/01/28 05:34:34;;;;;;;0.88;0.73;;;0.90;99.90;;;;;;5110663;27;20198;-68
2023/01/28 05:37:01;;;;;;;1.05;1.00;;;0.80;99.90;;;;;;5114428;27;20232;-69
2023/01/28 05:39:27;;;;;;;1.58;1.48;;;0.80;99.90;;;;;;5130263;27;20193;-67
2023/01/28 05:41:54;;;;;;;1.45;1.35;;;0.70;99.90;;;;;;5127731;27;20225;-68
2023/01/28 05:44:21;;;;;;;1.25;1.00;;;0.70;99.90;;;;;;5110941;27;20209;-68
2023/01/28 05:46:48;;;;;;;2.00;1.27;;;0.70;99.90;;;;;;5116371;27;20231;-68
2023/01/28 05:49:16;;;;;;;0.75;0.75;;;0.70;99.90;;;;;;5130331;27;20571;-68
2023/01/28 05:51:43;;;;;;;2.45;1.92;;;0.70;99.90;;;;;;5116825;27;20432;-68
2023/01/28 05:54:10;;;;;;;0.95;0.82;;;0.60;99.90;;;;;;5110168;27;20221;-68
2023/01/28 05:56:37;;;;;;;1.10;0.82;;;0.60;99.90;;;;;;5111557;27;20218;-68
2023/01/28 05:59:04;;;;;;;1.52;1.42;;;0.70;99.90;;;;;;5110147;28;20190;-68
2023/01/28 06:01:31;;;;;;;0.73;0.73;;;0.70;99.90;;;;;;5127588;27;20217;-67
2023/01/28 06:03:59;;;;;;;6.65;1.40;;;0.70;99.90;;;;;;5130967;27;20281;-68
2023/01/28 06:06:27;;;;;;;1.15;1.10;;;0.70;99.90;;;;;;5130396;27;20230;-68
2023/01/28 06:08:54;;;;;;;1.70;1.60;;;0.70;99.90;;;;;;5120480;27;20189;-67
2023/01/28 06:11:20;;;;;;;1.48;0.47;;;0.70;99.90;;;;;;5121723;27;20229;-68
2023/01/28 06:13:47;;;;;;;1.83;1.73;;;0.70;99.90;;;;;;5120157;27;20191;-68
2023/01/28 06:16:14;;;;;;;1.92;1.85;;;0.70;99.90;;;;;;5119477;27;20221;-68
2023/01/28 06:18:41;;;;;;;2.00;1.90;;;0.70;99.90;;;;;;5119940;27;20637;-68
2023/01/28 06:21:08;;;;;;;0.93;0.85;;;0.80;99.90;;;;;;5118213;27;20224;-68
2023/01/28 06:23:36;;;;;;;1.85;1.20;;;0.70;99.90;;;;;;5121203;27;20546;-68
2023/01/28 06:26:03;;;;;;;8.23;3.10;;;0.70;99.90;;;;;;5130119;27;20222;-68
2023/01/28 06:28:30;;;;;;;0.50;0.50;;;0.70;99.90;;;;;;5129801;27;20200;-68
2023/01/28 06:30:57;;;;;;;2.05;1.95;;;0.70;99.90;;;;;;5130082;27;20618;-68
2023/01/28 06:33:24;;;;;;;1.30;1.10;;;0.70;99.90;;;;;;5130306;27;20197;-68
2023/01/28 06:35:51;;;;;;;2.25;1.95;;;0.70;99.90;;;;;;5129115;27;20217;-67
2023/01/28 06:38:18;;;;;;;2.72;2.53;;;0.70;99.90;;;;;;5129371;27;20209;-67
2023/01/28 06:40:51;;;;;;;1.15;1.00;;;0.70;99.90;;;;;;5117215;27;20299;-69
2023/01/28 06:43:18;;;;;;;1.52;0.88;;;0.70;99.90;;;;;;5127838;27;20280;-68
2023/01/28 06:45:44;;;;;;;1.83;1.73;;;0.70;99.90;;;;;;5129685;27;20217;-68
2023/01/28 06:48:11;;;;;;;2.05;1.52;;;0.70;99.90;;;;;;5113725;27;20202;-68
2023/01/28 06:50:38;;;;;;;0.95;0.90;;;0.70;99.90;;;;;;5110837;27;20218;-68
2023/01/28 06:53:04;;;;;;;3.20;3.00;;;0.70;99.90;;;;;;5109583;28;20208;-68
2023/01/28 06:55:31;;;;;;;0.68;0.68;;;0.60;99.90;;;;;;5109048;27;20308;-68
2023/01/28 06:57:59;;;;;;;0.80;0.73;;;0.70;99.90;;;;;;5110280;27;20200;-69
2023/01/28 07:00:26;;;;;;;0.98;0.98;;;0.70;99.90;;;;;;5109304;27;20221;-68
2023/01/28 07:02:56;;;;;;;1.35;1.25;;;0.70;99.90;;;;;;5117117;27;20288;-68
2023/01/28 07:05:23;;;;;;;1.60;1.02;;;0.70;99.90;;;;;;5119286;27;20205;-68
2023/01/28 07:07:49;;;;;;;0.50;0.50;;;0.80;99.90;;;;;;5129552;27;20726;-67
2023/01/28 07:10:17;;;;;;;4.32;1.90;;;0.80;99.90;;;;;;5128157;27;20198;-68
2023/01/28 07:12:43;;;;;;;0.68;0.60;;;0.90;99.90;;;;;;5128950;27;20201;-68
2023/01/28 07:15:13;;;;;;;2.33;1.45;;;0.80;99.90;;;;;;5129247;27;20199;-68
2023/01/28 07:17:40;;;;;;;6.15;1.90;;;0.70;99.90;;;;;;5129537;27;20228;-67
2023/01/28 07:20:09;;;;;;;3.03;1.98;;;0.70;99.90;;;;;;5128604;27;20193;-68
2023/01/28 07:22:36;;;;;;;2.25;2.15;;;0.80;99.90;;;;;;5129374;27;20186;-68
2023/01/28 07:25:03;;;;;;;0.57;0.57;;;0.70;99.90;;;;;;5128390;27;20276;-68
2023/01/28 07:27:30;;;;;;;1.70;1.60;;;0.70;99.90;;;;;;5128684;27;20231;-67
2023/01/28 07:29:57;;;;;;;4.47;3.03;;;0.70;99.90;;;;;;5127890;27;20734;-68
2023/01/28 07:32:26;;;;;;;1.08;0.98;;;0.80;99.90;;;;;;5129136;27;20224;-67
2023/01/28 07:34:53;;;;;;;0.60;0.60;;;0.70;99.90;;;;;;5128801;27;20646;-68
2023/01/28 07:37:19;;;;;;;1.02;1.02;;;0.60;99.90;;;;;;5126146;27;20234;-69
2023/01/28 07:39:46;;;;;;;1.15;1.15;;;0.70;99.90;;;;;;5117836;27;20207;-68
2023/01/28 07:42:13;;;;;;;2.85;0.77;;;0.80;99.90;;;;;;5128782;27;20218;-68
2023/01/28 07:44:40;;;;;;;1.27;1.27;;;0.80;99.90;;;;;;5128846;27;20746;-68
2023/01/28 07:47:07;;;;;;;1.60;1.50;;;0.90;99.90;;;;;;5127979;27;20555;-68
2023/01/28 07:49:38;;;;;;;1.73;0.55;;;0.90;99.90;;;;;;5128184;27;20635;-68
2023/01/28 07:52:05;;;;;;;0.70;0.65;;;0.90;99.90;;;;;;5128567;27;20221;-69
2023/01/28 07:54:32;;;;;;;4.95;2.03;;;0.90;99.90;;;;;;5127872;27;20189;-68
2023/01/28 07:56:59;;;;;;;2.17;1.40;;;0.90;99.90;;;;;;5127218;27;20223;-69
2023/01/28 07:59:26;;;;;;;0.65;0.65;;;0.90;99.90;;;;;;5128667;27;20227;-68
2023/01/28 08:01:52;;;;;;;2.30;1.02;;;1.00;99.90;;;;;;5128224;27;20613;-68
2023/01/28 08:04:19;;;;;;;4.00;2.63;;;1.00;99.90;;;;;;5129180;27;20254;-68
2023/01/28 08:06:48;;;;;;;4.40;2.35;;;1.40;99.90;;;;;;5127636;27;20243;-68
2023/01/28 08:09:14;;;;;;;1.40;1.40;;;1.10;99.90;;;;;;5126394;27;20246;-69
2023/01/28 08:11:41;;;;;;;2.35;2.15;;;1.20;99.90;;;;;;5126737;27;20222;-68
2023/01/28 08:14:08;;;;;;;1.05;0.93;;;1.10;99.90;;;;;;5127830;27;20193;-69
2023/01/28 08:16:35;;;;;;;2.10;1.45;;;1.10;99.90;;;;;;5117567;27;20703;-67
2023/01/28 08:19:02;;;;;;;0.60;0.60;;;1.10;99.90;;;;;;5126754;27;20216;-69
2023/01/28 08:21:29;;;;;;;0.65;0.65;;;1.10;99.90;;;;;;5127636;27;20269;-69
2023/01/28 08:23:57;;;;;;;1.33;0.85;;;1.10;99.90;;;;;;5127155;27;20651;-68
2023/01/28 08:26:24;;;;;;;0.85;0.85;;;1.20;99.90;;;;;;5127654;27;20220;-69
2023/01/28 08:28:50;;;;;;;1.00;1.00;;;1.20;99.90;;;;;;5127629;27;20654;-69
2023/01/28 08:31:17;;;;;;;0.70;0.68;;;1.20;99.90;;;;;;5128322;27;20231;-68
2023/01/28 08:33:44;;;;;;;0.95;0.95;;;1.30;99.90;;;;;;5127564;27;20193;-68
2023/01/28 08:36:11;;;;;;;0.95;0.95;;;1.30;99.90;;;;;;5128112;27;20784;-69
2023/01/28 08:38:37;;;;;;;1.70;1.60;;;1.30;99.90;;;;;;5126381;28;20193;-67
2023/01/28 08:41:05;;;;;;;0.73;0.73;;;1.30;99.90;;;;;;5116503;28;20217;-69
2023/01/28 08:43:32;;;;;;;1.50;1.42;;;1.40;99.90;;;;;;5127055;28;20201;-68
2023/01/28 08:45:59;;;;;;;3.35;1.00;;;1.30;99.90;;;;;;5127761;28;20225;-67
2023/01/28 08:48:26;;;;;;;0.85;0.85;;;1.50;99.90;;;;;;5108565;28;20223;-68
2023/01/28 08:50:53;;;;;;;1.70;0.90;;;1.30;99.90;;;;;;5108275;28;20707;-68
2023/01/28 08:53:20;;;;;;;1.17;1.05;;;1.40;99.90;;;;;;5108086;28;20214;-68
2023/01/28 08:55:48;;;;;;;3.40;2.17;;;1.40;99.90;;;;;;5107096;28;20221;-70
2023/01/28 08:58:17;;;;;;;1.23;1.13;;;1.30;99.90;;;;;;5124184;27;20203;-68
2023/01/28 09:00:45;;;;;;;1.48;1.48;;;1.60;99.90;;;;;;5131280;27;20283;-69
2023/01/28 09:03:11;;;;;;;5.13;4.13;;;1.50;99.90;;;;;;5117823;27;20732;-67
2023/01/28 09:05:39;;;;;;;4.32;2.05;;;1.60;99.90;;;;;;5110387;28;20724;-68
2023/01/28 09:08:08;;;;;;;1.48;1.38;;;1.70;99.90;;;;;;5124400;27;20640;-68
2023/01/28 09:10:36;;;;;;;1.65;1.55;;;1.60;99.90;;;;;;5113701;27;20584;-69
2023/01/28 09:13:05;;;;;;;1.08;1.08;;;1.60;99.90;;;;;;5115152;27;20217;-68
2023/01/28 09:15:34;;;;;;;2.13;1.55;;;1.70;99.90;;;;;;5115393;27;20224;-68
2023/01/28 09:18:01;;;;;;;1.27;1.27;;;1.80;99.90;;;;;;5110990;28;20194;-67
2023/01/28 09:20:28;;;;;;;1.48;1.13;;;1.70;99.90;;;;;;5126601;27;20219;-68
2023/01/28 09:22:55;;;;;;;1.88;1.23;;;1.80;99.90;;;;;;5125395;27;20190;-68
2023/01/28 09:25:22;;;;;;;1.75;1.65;;;1.90;99.90;;;;;;5110940;27;20201;-69
2023/01/28 09:27:49;;;;;;;5.50;1.98;;;1.90;99.90;;;;;;5123529;27;20217;-68
2023/01/28 09:30:16;;;;;;;3.08;0.93;;;1.90;99.90;;;;;;5129177;27;20554;-68
2023/01/28 09:32:44;;;;;;;1.27;1.27;;;1.90;99.90;;;;;;5131762;27;20197;-68
2023/01/28 09:35:11;;;;;;;1.08;1.08;;;1.90;99.90;;;;;;5131150;27;20201;-68
2023/01/28 09:37:38;;;;;;;1.42;1.08;;;1.90;99.90;;;;;;5130738;27;20209;-68
2023/01/28 09:40:06;;;;;;;1.05;0.95;;;1.90;99.90;;;;;;5117436;27;20581;-68
2023/01/28 09:42:47;;;;;;;1.25;1.15;;;1.90;99.90;;;;;;5124154;27;20193;-68
2023/01/28 09:45:17;;;;;;;1.55;1.45;;;1.90;99.90;;;;;;5110472;27;20200;-68
2023/01/28 09:47:50;;;;;;;3.17;1.80;;;2.00;99.90;;;;;;5123578;27;20225;-68
2023/01/28 09:50:23;;;;;;;3.80;2.33;;;2.10;99.90;;;;;;5130291;27;20203;-68
2023/01/28 09:52:53;;;;;;;2.83;2.60;;;2.00;99.90;;;;;;5130416;27;20373;-69
2023/01/28 09:55:31;;;;;;;0.55;0.55;;;2.00;99.90;;;;;;5130872;27;20199;-68
2023/01/28 09:57:58;;;;;;;1.25;1.25;;;2.10;99.90;;;;;;5130551;27;20195;-69
2023/01/28 10:00:30;;;;;;;1.58;0.95;;;2.20;99.90;;;;;;5129820;27;20693;-68
2023/01/28 10:03:13;;;;;;;4.55;2.72;;;2.20;99.90;;;;;;5129763;27;20194;-68
2023/01/28 10:05:52;;;;;;;5.88;2.28;;;2.20;99.90;;;;;;5130176;27;20228;-68
2023/01/28 10:08:35;;;;;;;5.72;1.10;;;2.30;99.90;;;;;;5130438;27;20221;-68
2023/01/28 10:11:12;;;;;;;2.80;1.60;;;2.30;99.90;;;;;;5118749;27;20270;-68
2023/01/28 10:13:46;;;;;;;3.90;1.23;;;2.40;99.90;;;;;;5125114;27;20201;-69
2023/01/28 10:16:23;;;;;;;2.78;1.15;;;2.40;99.90;;;;;;5128054;27;20228;-69
2023/01/28 10:18:56;;;;;;;0.45;0.45;;;2.40;99.90;;;;;;5116294;27;20200;-68
2023/01/28 10:21:26;;;;;;;1.98;1.88;;;2.30;99.90;;;;;;5112258;27;20222;-69
2023/01/28 10:23:59;;;;;;;5.70;1.30;;;2.30;99.90;;;;;;5109713;27;20204;-67
2023/01/28 10:26:30;;;;;;;1.77;1.67;;;2.30;99.90;;;;;;5109423;27;20220;-68
2023/01/28 10:29:03;;;;;;;1.15;1.10;;;2.20;99.90;;;;;;5128659;27;20233;-68
2023/01/28 10:31:35;;;;;;;2.40;1.33;;;2.20;99.90;;;;;;5109389;27;20232;-66
2023/01/28 10:34:04;;;;;;;1.92;1.83;;;2.20;99.90;;;;;;5127713;27;20705;-68
2023/01/28 10:36:31;;;;;;;1.10;1.10;;;2.20;99.90;;;;;;5129544;27;20236;-69
2023/01/28 10:39:01;;;;;;;2.95;2.03;;;2.10;99.90;;;;;;5112366;27;20192;-68
2023/01/28 10:41:28;;;;;;;1.48;1.35;;;2.10;99.90;;;;;;5129106;27;20308;-68
2023/01/28 10:43:57;;;;;;;3.28;3.00;;;2.10;99.90;;;;;;5129536;27;20197;-68
2023/01/28 10:46:29;;;;;;;4.30;3.08;;;2.10;99.90;;;;;;5119598;27;20230;-67
2023/01/28 10:49:02;;;;;;;2.65;2.45;;;2.10;99.90;;;;;;5129245;27;20220;-68
2023/01/28 10:51:35;;;;;;;1.55;1.30;;;2.20;99.90;;;;;;5129121;27;20239;-68
2023/01/28 10:54:03;;;;;;;1.88;1.75;;;2.00;99.90;;;;;;5128487;27;20199;-68
2023/01/28 10:56:32;;;;;;;1.50;1.40;;;2.00;99.90;;;;;;5128558;27;20221;-68
2023/01/28 10:59:01;;;;;;;1.45;1.13;;;2.70;99.90;;;;;;5127471;27;20746;-69
2023/01/28 11:01:43;;;;;;;1.77;1.67;;;1.90;99.90;;;;;;5128411;27;20224;-68
2023/01/28 11:04:18;;;;;;;1.50;1.35;;;1.90;99.90;;;;;;5129261;27;20677;-69
2023/01/28 11:06:55;;;;;;;5.68;3.38;;;1.90;99.90;;;;;;5128493;27;20867;-69
2023/01/28 11:09:24;;;;;;;2.47;2.30;;;2.00;99.90;;;;;;5119386;27;20231;-69
2023/01/28 11:11:51;;;;;;;1.55;1.23;;;2.00;99.90;;;;;;5128264;27;20848;-69
2023/01/28 11:14:25;;;;;;;1.80;1.70;;;1.90;99.90;;;;;;5128354;27;20204;-68
2023/01/28 11:16:54;;;;;;;4.20;2.25;;;1.80;99.90;;;;;;5112381;27;20246;-68
2023/01/28 11:19:26;;;;;;;9.88;2.67;;;1.90;99.90;;;;;;5128051;27;20208;-68
2023/01/28 11:21:56;;;;;;;2.22;2.03;;;1.90;99.90;;;;;;5107934;27;20232;-69
2023/01/28 11:24:28;;;;;;;0.88;0.63;;;1.90;99.90;;;;;;5128922;27;20207;-69
2023/01/28 11:26:57;;;;;;;1.75;1.23;;;1.80;99.90;;;;;;5112165;27;20213;-69
2023/01/28 11:29:28;;;;;;;1.40;1.30;;;1.90;99.90;;;;;;5127480;27;20231;-68
2023/01/28 11:31:55;;;;;;;1.88;1.77;;;1.90;99.90;;;;;;5128046;27;20331;-68
2023/01/28 11:34:27;;;;;;;1.30;1.20;;;2.00;99.90;;;;;;5128527;27;20205;-69
2023/01/28 11:37:02;;;;;;;2.90;1.17;;;2.10;99.90;;;;;;5125308;27;20229;-69
2023/01/28 11:39:29;;;;;;;1.95;1.65;;;2.00;99.90;;;;;;5119257;27;20204;-68
2023/01/28 11:42:10;;;;;;;3.75;3.45;;;2.10;99.90;;;;;;5121336;27;20381;-67
2023/01/28 11:44:37;;;;;;;3.05;2.45;;;2.00;99.90;;;;;;5128355;27;20189;-68
2023/01/28 11:47:24;;;;;;;1.35;1.25;;;2.00;99.90;;;;;;5126829;27;20209;-68
2023/01/28 11:50:11;;;;;;;0.63;0.63;;;2.20;99.90;;;;;;5113296;27;20846;-68
2023/01/28 11:52:53;;;;;;;2.85;2.25;;;2.00;99.90;;;;;;5128814;27;20204;-68
2023/01/28 11:55:36;;;;;;;3.05;1.95;;;2.00;99.90;;;;;;5128416;27;20227;-68
2023/01/28 11:58:14;;;;;;;3.83;1.52;;;2.20;99.90;;;;;;5126786;27;20192;-68
2023/01/28 12:00:46;;;;;;;1.08;0.95;;;2.30;99.90;;;;;;5128144;27;20246;-68
2023/01/28 12:03:30;;;;;;;1.90;1.90;;;2.30;99.90;;;;;;5127909;27;20197;-68
2023/01/28 12:06:04;;;;;;;1.73;1.40;;;2.20;99.90;;;;;;5128336;27;20691;-69
2023/01/28 12:08:38;;;;;;;1.63;1.52;;;2.20;99.90;;;;;;5126771;27;20223;-67
2023/01/28 12:12:10;;;;;;;1.00;0.90;;;2.10;99.90;;;;;;5128101;27;20216;-68
2023/01/28 12:14:17;;;;;;;7.53;5.00;;;2.00;99.90;;;;;;5122565;27;20734;-69
2023/01/28 12:16:58;;;;;;;2.78;2.58;;;2.10;99.90;;;;;;5127703;27;20221;-68
2023/01/28 12:19:56;;;;;;;2.53;2.35;;;2.00;99.90;;;;;;5126582;27;20204;-67
2023/01/28 12:22:54;;;;;;;4.18;2.90;;;2.10;99.90;;;;;;5111146;27;20233;-69
2023/01/28 12:25:36;;;;;;;3.95;2.55;;;2.30;99.90;;;;;;5126904;27;21287;-67
2023/01/28 12:28:14;;;;;;;7.57;2.75;;;2.20;99.90;;;;;;5125660;27;20224;-69
2023/01/28 12:30:59;;;;;;;4.72;2.92;;;2.20;99.90;;;;;;5125726;27;20753;-68
2023/01/28 12:33:49;;;;;;;2.22;1.67;;;2.00;99.90;;;;;;5114171;27;20312;-67
2023/01/28 12:36:32;;;;;;;1.23;1.13;;;2.10;99.90;;;;;;5124304;27;20255;-67
2023/01/28 12:39:08;;;;;;;1.40;1.30;;;2.10;99.90;;;;;;5113669;28;20189;-67
2023/01/28 12:41:42;;;;;;;4.40;3.15;;;2.00;99.90;;;;;;5126730;28;20220;-69
2023/01/28 12:44:13;;;;;;;1.23;1.23;;;1.90;99.90;;;;;;5128153;28;20203;-69
2023/01/28 12:46:45;;;;;;;2.75;2.00;;;1.90;99.90;;;;;;5116354;28;20878;-68
2023/01/28 12:49:17;;;;;;;1.50;0.70;;;2.00;99.90;;;;;;5117691;28;20224;-68
2023/01/28 12:51:54;;;;;;;1.75;0.98;;;2.00;99.90;;;;;;5127724;28;20307;-68
2023/01/28 12:54:26;;;;;;;2.28;2.17;;;1.90;99.90;;;;;;5127760;28;20211;-68
2023/01/28 12:56:55;;;;;;;8.43;2.28;;;1.90;99.90;;;;;;5120757;28;20236;-68
2023/01/28 12:59:27;;;;;;;4.07;2.15;;;2.10;99.90;;;;;;5127915;28;20232;-67
2023/01/28 13:02:03;;;;;;;1.38;1.27;;;2.00;99.90;;;;;;5128095;28;20228;-68
2023/01/28 13:04:38;;;;;;;3.42;1.17;;;2.00;99.90;;;;;;5127494;28;20677;-67
2023/01/28 13:07:10;;;;;;;1.67;0.95;;;2.10;99.90;;;;;;5127592;28;20209;-68
2023/01/28 13:09:41;;;;;;;1.08;0.98;;;2.00;99.90;;;;;;5128014;28;20236;-68
2023/01/28 13:12:11;;;;;;;1.42;1.33;;;2.00;99.90;;;;;;5127551;28;20320;-68
2023/01/28 13:14:38;;;;;;;0.65;0.65;;;2.00;99.90;;;;;;5128427;28;20193;-68
2023/01/28 13:17:25;;;;;;;2.80;2.10;;;2.10;99.90;;;;;;5126873;28;20225;-68
2023/01/28 13:19:52;;;;;;;8.90;5.70;;;2.10;99.90;;;;;;5126160;28;20735;-69
2023/01/28 13:22:29;;;;;;;4.95;3.08;;;2.10;99.90;;;;;;5127789;28;20213;-68
2023/01/28 13:24:56;;;;;;;4.15;1.88;;;2.20;99.90;;;;;;5127460;28;20197;-69
2023/01/28 13:27:26;;;;;;;3.17;2.97;;;2.40;99.90;;;;;;5119191;28;20222;-67
2023/01/28 13:30:06;;;;;;;1.50;0.98;;;2.20;99.90;;;;;;5106797;28;20857;-67
2023/01/28 13:32:35;;;;;;;0.60;0.60;;;2.20;99.90;;;;;;5111144;28;20200;-69
2023/01/28 13:35:05;;;;;;;2.28;2.13;;;2.30;99.90;;;;;;5126055;28;20655;-68
2023/01/28 13:37:35;;;;;;;2.30;2.17;;;2.30;99.90;;;;;;5114214;28;20200;-67
2023/01/28 13:40:23;;;;;;;1.70;1.60;;;2.40;99.90;;;;;;5118554;28;20194;-68
2023/01/28 13:43:01;;;;;;;4.05;1.98;;;2.20;99.90;;;;;;5116150;28;20251;-68